Time;durP1;ratioP1;P1;durP2;ratioP2;P2;SDS_P1;SDS_P2;PMS_P1;PMS_P2;Temp;Humidity;BMP_temperature;BMP_pressure;BME280_temperature;BME280_humidity;BME280_pressure;Samples;Min_cycle;Max_cycle;Signal;HPM_P1;HPM_P2
2023/09/17 00:01:12;;;;;;;30.90;24.80;;;14.30;99.90;;;;;;5018222;28;20049;-67
2023/09/17 00:03:39;;;;;;;26.27;22.05;;;14.30;99.90;;;;;;5021655;28;20512;-65
2023/09/17 00:06:06;;;;;;;28.67;22.75;;;14.20;99.90;;;;;;5036016;28;20470;-66
2023/09/17 00:08:33;;;;;;;29.20;22.73;;;14.10;99.90;;;;;;5035154;28;20053;-66
2023/09/17 00:11:00;;;;;;;25.45;22.20;;;14.10;99.90;;;;;;5033505;28;20053;-66
2023/09/17 00:13:27;;;;;;;30.83;23.95;;;14.00;99.90;;;;;;5033223;28;20053;-66
2023/09/17 00:15:56;;;;;;;29.20;23.83;;;14.00;99.90;;;;;;5033544;28;20044;-65
2023/09/17 00:18:23;;;;;;;30.23;25.33;;;14.00;99.90;;;;;;5035501;28;20057;-66
2023/09/17 00:20:50;;;;;;;31.13;24.83;;;14.00;99.90;;;;;;5032721;28;20049;-65
2023/09/17 00:23:17;;;;;;;31.50;24.52;;;14.00;99.90;;;;;;5033251;28;20988;-64
2023/09/17 00:25:43;;;;;;;28.48;23.40;;;14.00;99.90;;;;;;5033496;28;20499;-64
2023/09/17 00:28:10;;;;;;;26.85;22.92;;;14.00;99.90;;;;;;5032736;28;20045;-64
2023/09/17 00:30:37;;;;;;;28.90;22.90;;;14.00;99.90;;;;;;5033512;28;20057;-64
2023/09/17 00:33:06;;;;;;;37.40;23.67;;;14.00;99.90;;;;;;5033137;28;20052;-64
2023/09/17 00:35:33;;;;;;;30.88;23.30;;;13.90;99.90;;;;;;5032198;28;20051;-64
2023/09/17 00:38:00;;;;;;;30.33;25.33;;;14.00;99.90;;;;;;5035135;28;20052;-64
2023/09/17 00:40:30;;;;;;;29.55;24.60;;;14.00;99.90;;;;;;5032578;28;20049;-65
2023/09/17 00:42:56;;;;;;;31.87;26.53;;;13.90;99.90;;;;;;5020511;28;20053;-65
2023/09/17 00:45:23;;;;;;;31.45;23.40;;;14.00;99.90;;;;;;5020424;28;20053;-65
2023/09/17 00:47:51;;;;;;;27.70;21.90;;;13.90;99.90;;;;;;5020485;28;20090;-65
2023/09/17 00:50:19;;;;;;;27.35;23.45;;;13.90;99.90;;;;;;5019961;28;20497;-65
2023/09/17 00:52:46;;;;;;;28.40;24.17;;;13.90;99.90;;;;;;5020405;28;20057;-66
2023/09/17 00:55:14;;;;;;;29.23;24.02;;;13.90;99.90;;;;;;5019931;28;20071;-65
2023/09/17 00:57:45;;;;;;;27.33;22.60;;;13.90;99.90;;;;;;5019734;28;20045;-66
2023/09/17 01:00:14;;;;;;;26.02;22.63;;;13.90;99.90;;;;;;5023562;28;20045;-66
2023/09/17 01:02:42;;;;;;;27.35;21.80;;;13.90;99.90;;;;;;5034097;28;20501;-66
2023/09/17 01:05:09;;;;;;;24.95;21.88;;;13.90;99.90;;;;;;5034572;28;20482;-65
2023/09/17 01:07:38;;;;;;;28.38;23.52;;;13.90;99.90;;;;;;5032587;28;20041;-66
2023/09/17 01:10:06;;;;;;;30.00;23.05;;;13.90;99.90;;;;;;5032133;28;20382;-66
2023/09/17 01:12:33;;;;;;;31.95;24.17;;;14.00;99.90;;;;;;5032708;28;20057;-65
2023/09/17 01:15:00;;;;;;;26.45;23.15;;;14.00;99.90;;;;;;5032620;28;20527;-65
2023/09/17 01:17:30;;;;;;;30.08;23.90;;;14.00;99.90;;;;;;5033844;28;20049;-66
2023/09/17 01:19:58;;;;;;;32.53;24.53;;;14.00;99.90;;;;;;5032326;28;20044;-65
2023/09/17 01:22:32;;;;;;;28.70;22.67;;;14.00;99.90;;;;;;5017474;28;20296;-65
2023/09/17 01:25:05;;;;;;;26.48;21.65;;;14.00;99.90;;;;;;5033771;28;20509;-66
2023/09/17 01:27:35;;;;;;;26.27;22.52;;;14.00;99.90;;;;;;5032045;28;20041;-65
2023/09/17 01:30:05;;;;;;;32.38;23.48;;;14.00;99.90;;;;;;5032024;28;20084;-67
2023/09/17 01:32:32;;;;;;;26.40;20.67;;;14.10;99.90;;;;;;5033862;28;20079;-65
2023/09/17 01:34:59;;;;;;;26.42;21.48;;;14.10;99.90;;;;;;5032224;28;20437;-65
2023/09/17 01:37:31;;;;;;;28.40;22.42;;;14.10;99.90;;;;;;5031855;28;20045;-66
2023/09/17 01:40:00;;;;;;;25.42;20.52;;;14.10;99.90;;;;;;5019288;28;20045;-66
2023/09/17 01:42:28;;;;;;;22.10;19.25;;;14.10;99.90;;;;;;5019536;28;20056;-66
2023/09/17 01:44:59;;;;;;;24.48;20.48;;;14.00;99.90;;;;;;5018958;28;20049;-66
2023/09/17 01:47:26;;;;;;;25.50;20.58;;;14.00;99.90;;;;;;5019480;28;20452;-65
2023/09/17 01:49:55;;;;;;;23.13;20.15;;;14.00;99.90;;;;;;5019516;28;20049;-66
2023/09/17 01:52:25;;;;;;;30.38;22.85;;;14.00;99.90;;;;;;5018792;28;20041;-67
2023/09/17 01:54:52;;;;;;;26.27;21.05;;;14.00;99.90;;;;;;5030223;28;20058;-66
2023/09/17 01:57:19;;;;;;;25.73;22.88;;;14.10;99.90;;;;;;5027989;28;20042;-67
2023/09/17 01:59:46;;;;;;;25.77;22.20;;;14.10;99.90;;;;;;5027608;28;20054;-67
2023/09/17 02:02:14;;;;;;;27.52;22.40;;;14.10;99.90;;;;;;5027937;28;20045;-65
2023/09/17 02:04:41;;;;;;;27.02;22.20;;;14.10;99.90;;;;;;5016147;28;20057;-65
2023/09/17 02:07:09;;;;;;;27.50;21.83;;;14.20;99.90;;;;;;5015087;28;20050;-65
2023/09/17 02:09:36;;;;;;;27.10;21.65;;;14.20;99.90;;;;;;5032544;28;20452;-65
2023/09/17 02:12:03;;;;;;;28.08;21.38;;;14.20;99.90;;;;;;5015186;28;20053;-65
2023/09/17 02:14:30;;;;;;;28.52;21.60;;;14.20;99.90;;;;;;5015101;28;20053;-65
2023/09/17 02:16:56;;;;;;;29.45;22.88;;;14.30;99.90;;;;;;5015414;28;20525;-65
2023/09/17 02:19:26;;;;;;;27.23;23.20;;;14.30;99.90;;;;;;5015703;28;20049;-65
2023/09/17 02:21:53;;;;;;;32.67;23.30;;;14.40;99.90;;;;;;5027376;28;20054;-65
2023/09/17 02:24:20;;;;;;;31.63;25.05;;;14.50;99.90;;;;;;5027612;28;20103;-65
2023/09/17 02:26:47;;;;;;;31.38;23.92;;;14.50;99.90;;;;;;5027669;28;20052;-65
2023/09/17 02:29:14;;;;;;;26.33;23.25;;;14.60;99.90;;;;;;5027592;28;20056;-65
2023/09/17 02:31:40;;;;;;;38.67;24.42;;;14.60;99.90;;;;;;5013380;28;20056;-64
2023/09/17 02:34:07;;;;;;;29.77;24.13;;;14.70;99.90;;;;;;5014826;28;20050;-65
2023/09/17 02:36:36;;;;;;;28.85;23.17;;;14.60;99.90;;;;;;5027782;28;20060;-65
2023/09/17 02:39:04;;;;;;;28.08;21.80;;;14.70;99.90;;;;;;5013186;28;20053;-65
2023/09/17 02:41:30;;;;;;;29.83;21.85;;;14.80;99.90;;;;;;5012982;28;20096;-65
2023/09/17 02:43:59;;;;;;;26.88;22.55;;;14.80;99.90;;;;;;5015131;28;20239;-65
2023/09/17 02:46:26;;;;;;;31.65;23.00;;;14.90;99.90;;;;;;5015304;28;20073;-65
2023/09/17 02:48:54;;;;;;;28.15;23.52;;;14.90;99.90;;;;;;5013991;28;20046;-67
2023/09/17 02:51:21;;;;;;;27.60;23.27;;;15.00;99.90;;;;;;5014900;28;20045;-66
2023/09/17 02:53:49;;;;;;;26.08;21.25;;;15.00;99.90;;;;;;5027858;28;20046;-66
2023/09/17 02:56:16;;;;;;;28.65;22.83;;;15.10;99.90;;;;;;5026306;28;20072;-65
2023/09/17 02:58:43;;;;;;;28.70;22.20;;;15.10;99.90;;;;;;5029285;28;20050;-65
2023/09/17 03:01:16;;;;;;;27.80;22.52;;;15.20;99.90;;;;;;5014671;28;20084;-65
2023/09/17 03:03:43;;;;;;;30.20;22.70;;;15.20;99.90;;;;;;5014240;28;20119;-65
2023/09/17 03:06:10;;;;;;;27.90;21.65;;;15.20;99.90;;;;;;5031496;28;20192;-66
2023/09/17 03:08:41;;;;;;;28.33;21.95;;;15.30;99.90;;;;;;5030035;28;20084;-65
2023/09/17 03:11:13;;;;;;;27.50;22.15;;;15.30;99.90;;;;;;5029466;28;20478;-66
2023/09/17 03:13:42;;;;;;;26.98;23.55;;;15.40;99.90;;;;;;5014479;28;20059;-66
2023/09/17 03:16:09;;;;;;;30.58;22.45;;;15.40;99.90;;;;;;5031231;28;20050;-65
2023/09/17 03:18:36;;;;;;;32.55;23.65;;;15.50;99.90;;;;;;5012120;28;20058;-65
2023/09/17 03:21:06;;;;;;;28.90;22.85;;;15.50;99.90;;;;;;5014743;28;20389;-65
2023/09/17 03:23:33;;;;;;;29.52;23.95;;;15.60;99.90;;;;;;5013414;28;20045;-66
2023/09/17 03:26:01;;;;;;;26.75;22.48;;;15.70;99.90;;;;;;5013323;28;20041;-65
2023/09/17 03:28:30;;;;;;;28.00;23.08;;;15.70;99.90;;;;;;5014337;28;20045;-66
2023/09/17 03:30:56;;;;;;;30.65;23.67;;;15.80;99.90;;;;;;5011855;28;20052;-65
2023/09/17 03:33:24;;;;;;;26.30;23.42;;;15.90;99.90;;;;;;5014262;28;20046;-65
2023/09/17 03:35:51;;;;;;;29.60;24.75;;;15.90;99.90;;;;;;5029268;28;20041;-65
2023/09/17 03:38:18;;;;;;;29.55;25.30;;;15.90;99.90;;;;;;5013720;28;20053;-66
2023/09/17 03:40:45;;;;;;;30.10;24.92;;;16.00;99.90;;;;;;5014540;28;20363;-66
2023/09/17 03:43:12;;;;;;;30.77;24.38;;;16.00;99.90;;;;;;5014259;28;20068;-66
2023/09/17 03:45:41;;;;;;;29.17;24.02;;;16.10;99.90;;;;;;5014079;28;20057;-66
2023/09/17 03:48:08;;;;;;;29.20;24.90;;;16.10;99.90;;;;;;5013804;28;20092;-68
2023/09/17 03:50:38;;;;;;;30.13;24.92;;;16.10;99.90;;;;;;5031204;28;20056;-68
2023/09/17 03:53:06;;;;;;;28.45;23.15;;;16.20;99.90;;;;;;5010503;28;20140;-66
2023/09/17 03:55:33;;;;;;;30.55;25.50;;;16.20;99.90;;;;;;5026369;28;20107;-66
2023/09/17 03:58:00;;;;;;;31.52;25.20;;;16.20;99.90;;;;;;5012384;28;20168;-68
2023/09/17 04:00:27;;;;;;;28.15;24.33;;;16.20;99.90;;;;;;5026140;28;20053;-66
2023/09/17 04:02:56;;;;;;;30.45;24.60;;;16.20;99.90;;;;;;5026732;28;20413;-69
2023/09/17 04:05:24;;;;;;;30.02;24.73;;;16.30;99.90;;;;;;5013685;28;20046;-69
2023/09/17 04:07:51;;;;;;;30.20;24.92;;;16.30;99.90;;;;;;5029865;28;20442;-70
2023/09/17 04:10:19;;;;;;;28.27;23.55;;;16.30;99.90;;;;;;5030648;28;20045;-68
2023/09/17 04:12:47;;;;;;;29.20;23.48;;;16.30;99.90;;;;;;5013584;28;20049;-68
2023/09/17 04:15:18;;;;;;;28.38;23.83;;;16.30;99.90;;;;;;5030764;28;20041;-68
2023/09/17 04:17:47;;;;;;;31.73;24.92;;;16.30;99.90;;;;;;5016367;28;20451;-67
2023/09/17 04:20:18;;;;;;;32.35;23.92;;;16.30;99.90;;;;;;5013737;28;20533;-66
2023/09/17 04:22:46;;;;;;;29.42;23.58;;;16.30;99.90;;;;;;5014338;28;20120;-66
2023/09/17 04:25:15;;;;;;;25.35;22.58;;;16.30;99.90;;;;;;5014217;28;20045;-66
2023/09/17 04:27:42;;;;;;;29.95;24.52;;;16.30;99.90;;;;;;5013315;28;20053;-66
2023/09/17 04:30:10;;;;;;;28.80;23.77;;;16.30;99.90;;;;;;5014056;28;20509;-69
2023/09/17 04:32:38;;;;;;;28.98;22.90;;;16.30;99.90;;;;;;5013584;28;20061;-70
2023/09/17 04:35:07;;;;;;;26.42;22.40;;;16.30;99.90;;;;;;5031603;28;20508;-70
2023/09/17 04:37:37;;;;;;;28.70;23.55;;;16.30;99.90;;;;;;5017416;28;20050;-69
2023/09/17 04:40:08;;;;;;;30.10;24.00;;;16.30;99.90;;;;;;5017784;28;20513;-70
2023/09/17 04:42:35;;;;;;;29.52;23.40;;;16.30;99.90;;;;;;5017114;28;20072;-72
2023/09/17 04:45:04;;;;;;;31.40;24.38;;;16.30;99.90;;;;;;5017044;28;20045;-67
2023/09/17 04:47:32;;;;;;;26.67;22.65;;;16.30;99.90;;;;;;5017401;28;20137;-68
2023/09/17 04:49:58;;;;;;;30.33;24.45;;;16.40;99.90;;;;;;5016916;28;20099;-67
2023/09/17 04:52:25;;;;;;;30.70;24.48;;;16.40;99.90;;;;;;5017262;28;20053;-68
2023/09/17 04:54:54;;;;;;;33.30;24.95;;;16.40;99.90;;;;;;5039595;28;20099;-69
2023/09/17 04:57:21;;;;;;;31.48;24.50;;;16.40;99.90;;;;;;5020472;28;20163;-69
2023/09/17 04:59:49;;;;;;;28.83;23.58;;;16.40;99.90;;;;;;5018136;28;20461;-69
2023/09/17 05:02:16;;;;;;;29.45;23.85;;;16.50;99.90;;;;;;5019313;28;20533;-69
2023/09/17 05:04:44;;;;;;;37.75;25.58;;;16.50;99.90;;;;;;5020026;28;20049;-69
2023/09/17 05:07:11;;;;;;;33.85;26.75;;;16.50;99.90;;;;;;5019773;28;20050;-70
2023/09/17 05:09:38;;;;;;;31.92;26.88;;;16.50;99.90;;;;;;5019437;28;20111;-70
2023/09/17 05:12:08;;;;;;;35.38;27.08;;;16.50;99.90;;;;;;5019871;28;20057;-70
2023/09/17 05:14:36;;;;;;;36.05;27.30;;;16.50;99.90;;;;;;5019868;28;20049;-70
2023/09/17 05:17:03;;;;;;;35.50;26.40;;;16.50;99.90;;;;;;5034453;28;20550;-69
2023/09/17 05:19:30;;;;;;;31.83;26.23;;;16.50;99.90;;;;;;5019680;28;20052;-69
2023/09/17 05:21:56;;;;;;;31.95;25.92;;;16.50;99.90;;;;;;5019912;28;20120;-67
2023/09/17 05:24:23;;;;;;;35.80;26.83;;;16.50;99.90;;;;;;5019193;28;20053;-68
2023/09/17 05:26:51;;;;;;;34.15;26.30;;;16.50;99.90;;;;;;5019848;28;20107;-67
2023/09/17 05:29:19;;;;;;;32.42;24.98;;;16.50;99.90;;;;;;5019585;28;20426;-67
2023/09/17 05:31:46;;;;;;;33.63;26.42;;;16.50;99.90;;;;;;5021555;28;20052;-67
2023/09/17 05:34:14;;;;;;;36.72;25.50;;;16.50;99.90;;;;;;5019892;28;20072;-67
2023/09/17 05:36:41;;;;;;;31.30;24.08;;;16.50;99.90;;;;;;5019873;28;20053;-66
2023/09/17 05:39:09;;;;;;;31.70;25.15;;;16.50;99.90;;;;;;5025693;28;20044;-66
2023/09/17 05:41:37;;;;;;;30.38;24.02;;;16.60;99.90;;;;;;5033801;28;20120;-66
2023/09/17 05:44:04;;;;;;;31.77;25.20;;;16.60;99.90;;;;;;5028068;28;20056;-66
2023/09/17 05:46:32;;;;;;;30.00;23.77;;;16.70;99.90;;;;;;5024152;28;20071;-65
2023/09/17 05:48:59;;;;;;;32.30;23.27;;;16.70;99.90;;;;;;5033264;28;20037;-65
2023/09/17 05:51:26;;;;;;;34.28;24.77;;;16.80;99.90;;;;;;5021267;28;20119;-66
2023/09/17 05:53:53;;;;;;;35.47;23.65;;;16.80;99.90;;;;;;5035535;28;20135;-66
2023/09/17 05:56:20;;;;;;;32.47;25.80;;;16.80;99.90;;;;;;5025569;28;20089;-65
2023/09/17 05:58:47;;;;;;;33.60;25.67;;;16.90;99.90;;;;;;5026440;28;20041;-65
2023/09/17 06:01:14;;;;;;;30.20;24.27;;;16.90;99.90;;;;;;5023798;28;20058;-65
2023/09/17 06:03:42;;;;;;;25.85;21.13;;;17.00;99.90;;;;;;5024776;28;20512;-65
2023/09/17 06:06:09;;;;;;;32.55;25.45;;;17.00;99.90;;;;;;5026821;28;20064;-65
2023/09/17 06:08:37;;;;;;;27.52;23.48;;;17.10;99.90;;;;;;5024480;28;20045;-65
2023/09/17 06:11:04;;;;;;;26.70;22.58;;;17.10;99.90;;;;;;5024013;28;20053;-64
2023/09/17 06:13:31;;;;;;;23.98;19.48;;;17.10;99.90;;;;;;5025633;28;20054;-65
2023/09/17 06:15:58;;;;;;;26.10;22.08;;;17.20;99.90;;;;;;5019115;28;20045;-65
2023/09/17 06:18:28;;;;;;;24.95;20.75;;;17.20;99.90;;;;;;5028503;28;20064;-66
2023/09/17 06:20:57;;;;;;;27.98;21.02;;;17.20;99.90;;;;;;5024806;28;20053;-66
2023/09/17 06:23:24;;;;;;;24.05;19.75;;;17.30;99.90;;;;;;5029119;28;20087;-65
2023/09/17 06:25:51;;;;;;;29.63;22.98;;;17.40;99.90;;;;;;5028808;28;20053;-66
2023/09/17 06:28:18;;;;;;;28.17;21.52;;;17.40;99.90;;;;;;5027331;28;20429;-67
2023/09/17 06:30:48;;;;;;;26.05;21.10;;;17.40;99.90;;;;;;5025902;28;20053;-67
2023/09/17 06:33:15;;;;;;;24.70;21.25;;;17.60;99.90;;;;;;5026537;28;20462;-66
2023/09/17 06:35:42;;;;;;;28.33;21.45;;;17.60;99.90;;;;;;5024507;28;20438;-66
2023/09/17 06:38:11;;;;;;;24.15;20.60;;;17.70;99.90;;;;;;5027311;28;20060;-66
2023/09/17 06:40:38;;;;;;;23.55;20.80;;;17.70;99.90;;;;;;5021623;28;20046;-65
2023/09/17 06:43:05;;;;;;;24.73;20.52;;;17.80;99.90;;;;;;5027070;28;20050;-66
2023/09/17 06:45:32;;;;;;;23.95;19.40;;;17.80;99.90;;;;;;5017933;28;20073;-68
2023/09/17 06:47:59;;;;;;;23.70;21.08;;;17.90;99.90;;;;;;5026073;28;20060;-67
2023/09/17 06:50:26;;;;;;;22.95;20.40;;;17.80;99.90;;;;;;5024730;28;20113;-66
2023/09/17 06:52:53;;;;;;;22.35;18.42;;;17.90;99.90;;;;;;5024674;28;20137;-65
2023/09/17 06:55:21;;;;;;;24.50;20.05;;;18.00;99.90;;;;;;5023759;28;20405;-66
2023/09/17 06:57:48;;;;;;;23.45;20.70;;;18.00;99.90;;;;;;5025420;28;20053;-66
2023/09/17 07:00:15;;;;;;;22.33;19.63;;;18.00;99.90;;;;;;5021020;28;20054;-66
2023/09/17 07:02:42;;;;;;;27.08;20.30;;;18.10;99.90;;;;;;5019268;28;20068;-67
2023/09/17 07:05:10;;;;;;;23.13;19.73;;;18.20;99.90;;;;;;5020942;28;20050;-65
2023/09/17 07:07:37;;;;;;;21.23;18.02;;;18.40;99.90;;;;;;5029499;28;20072;-66
2023/09/17 07:10:05;;;;;;;25.42;19.40;;;18.60;99.90;;;;;;5016432;28;20046;-65
2023/09/17 07:12:37;;;;;;;20.27;17.52;;;18.70;99.90;;;;;;5026807;28;20402;-65
2023/09/17 07:15:06;;;;;;;24.63;20.50;;;18.80;99.90;;;;;;5025639;28;20498;-66
2023/09/17 07:17:34;;;;;;;25.00;19.15;;;18.90;99.90;;;;;;5027554;28;20065;-66
2023/09/17 07:20:01;;;;;;;20.77;18.45;;;19.00;99.90;;;;;;5020645;28;20049;-66
2023/09/17 07:22:28;;;;;;;21.17;18.88;;;19.00;99.90;;;;;;5026263;28;20046;-66
2023/09/17 07:24:58;;;;;;;21.17;18.90;;;19.10;99.90;;;;;;5021011;28;20046;-67
2023/09/17 07:27:26;;;;;;;18.48;15.38;;;19.10;99.90;;;;;;5030629;28;20046;-67
2023/09/17 07:29:55;;;;;;;22.23;17.83;;;19.20;99.90;;;;;;5025957;28;20041;-67
2023/09/17 07:32:21;;;;;;;20.17;17.08;;;19.30;99.90;;;;;;5024945;28;20049;-66
2023/09/17 07:34:48;;;;;;;21.92;17.80;;;19.50;99.90;;;;;;5026139;28;20409;-65
2023/09/17 07:37:16;;;;;;;20.17;17.38;;;19.70;99.90;;;;;;5025220;28;20045;-66
2023/09/17 07:39:45;;;;;;;20.42;17.25;;;20.00;99.90;;;;;;5026425;28;20145;-66
2023/09/17 07:42:12;;;;;;;17.58;15.25;;;20.50;99.90;;;;;;5026416;28;20081;-66
2023/09/17 07:44:39;;;;;;;15.93;12.88;;;21.50;99.90;;;;;;5024430;28;20461;-65
2023/09/17 07:47:09;;;;;;;17.80;14.57;;;22.20;99.90;;;;;;5026297;28;20104;-66
2023/09/17 07:49:36;;;;;;;17.85;14.90;;;22.30;99.90;;;;;;5023611;28;20061;-66
2023/09/17 07:52:03;;;;;;;16.73;13.10;;;22.10;99.90;;;;;;5012661;28;20054;-66
2023/09/17 07:54:31;;;;;;;14.77;12.73;;;21.90;99.90;;;;;;5024848;28;20104;-66
2023/09/17 07:56:58;;;;;;;15.50;12.82;;;21.60;99.90;;;;;;5024940;28;20456;-66
2023/09/17 07:59:25;;;;;;;16.05;14.15;;;21.40;99.90;;;;;;5025039;28;20053;-67
2023/09/17 08:01:52;;;;;;;14.82;12.63;;;21.00;99.90;;;;;;5017030;28;20050;-67
2023/09/17 08:04:20;;;;;;;17.40;14.15;;;20.90;99.90;;;;;;5013123;28;20425;-67
2023/09/17 08:06:48;;;;;;;15.73;13.27;;;20.70;99.90;;;;;;5024628;28;20061;-67
2023/09/17 08:09:15;;;;;;;14.77;12.98;;;20.50;99.90;;;;;;5025341;28;20501;-67
2023/09/17 08:11:43;;;;;;;16.73;14.43;;;20.50;99.90;;;;;;5028317;28;20045;-67
2023/09/17 08:14:10;;;;;;;16.50;14.73;;;20.40;99.90;;;;;;5028041;28;20511;-66
2023/09/17 08:16:38;;;;;;;16.73;14.75;;;20.30;99.90;;;;;;5030139;28;20107;-68
2023/09/17 08:19:07;;;;;;;17.55;14.00;;;20.20;99.90;;;;;;5016447;28;20405;-68
2023/09/17 08:21:35;;;;;;;18.02;13.82;;;20.20;99.90;;;;;;5017471;28;20053;-67
2023/09/17 08:24:02;;;;;;;14.95;13.27;;;20.20;99.90;;;;;;5028030;28;20060;-66
2023/09/17 08:26:29;;;;;;;17.70;14.70;;;20.20;99.90;;;;;;5018616;28;20053;-67
2023/09/17 08:28:56;;;;;;;17.58;14.63;;;20.20;99.90;;;;;;5025405;28;20050;-69
2023/09/17 08:31:25;;;;;;;15.95;14.25;;;20.20;99.90;;;;;;5027394;28;20560;-68
2023/09/17 08:33:52;;;;;;;17.55;15.65;;;20.10;99.90;;;;;;5028094;28;20116;-68
2023/09/17 08:36:21;;;;;;;17.15;15.32;;;20.10;99.90;;;;;;5027168;28;20498;-68
2023/09/17 08:38:50;;;;;;;18.73;15.90;;;20.00;99.90;;;;;;5025567;28;20603;-68
2023/09/17 08:41:17;;;;;;;18.15;15.73;;;20.10;99.90;;;;;;5025979;28;20049;-67
2023/09/17 08:43:45;;;;;;;18.65;15.15;;;20.20;99.90;;;;;;5029120;28;20461;-67
2023/09/17 08:46:13;;;;;;;18.60;14.90;;;20.30;99.90;;;;;;5022354;28;20053;-68
2023/09/17 08:48:40;;;;;;;18.63;15.93;;;20.30;99.90;;;;;;5020803;28;20054;-67
2023/09/17 08:51:11;;;;;;;18.58;16.48;;;20.40;99.90;;;;;;5028238;28;20041;-68
2023/09/17 08:53:41;;;;;;;18.70;15.75;;;20.50;99.90;;;;;;5021298;28;20049;-67
2023/09/17 08:56:12;;;;;;;16.73;12.90;;;20.40;99.90;;;;;;5019543;28;20046;-67
2023/09/17 08:58:45;;;;;;;21.20;15.98;;;20.30;99.90;;;;;;5029046;28;20502;-67
2023/09/17 09:01:16;;;;;;;17.05;15.20;;;20.20;99.90;;;;;;5014760;28;20054;-67
2023/09/17 09:03:43;;;;;;;21.38;15.68;;;20.00;99.90;;;;;;5027240;28;20076;-68
2023/09/17 09:06:12;;;;;;;17.88;14.07;;;20.00;99.90;;;;;;5021405;28;20084;-67
2023/09/17 09:08:42;;;;;;;19.02;15.38;;;19.90;99.90;;;;;;5027385;28;20057;-68
2023/09/17 09:11:11;;;;;;;18.50;15.02;;;19.90;99.90;;;;;;5026839;28;20045;-68
2023/09/17 09:13:38;;;;;;;18.63;16.02;;;20.00;99.90;;;;;;5017932;28;20049;-67
2023/09/17 09:16:06;;;;;;;19.10;15.85;;;20.00;99.90;;;;;;5018671;28;20057;-65
2023/09/17 09:18:33;;;;;;;19.35;15.57;;;20.10;99.90;;;;;;5026018;28;20068;-66
2023/09/17 09:21:00;;;;;;;18.73;15.15;;;20.10;99.90;;;;;;5028358;28;20037;-66
2023/09/17 09:23:27;;;;;;;19.48;15.25;;;20.20;99.90;;;;;;5021907;28;20491;-67
2023/09/17 09:25:53;;;;;;;20.05;15.10;;;20.20;99.90;;;;;;5028981;28;20056;-67
2023/09/17 09:28:22;;;;;;;18.45;14.27;;;20.20;99.90;;;;;;5021798;28;20547;-65
2023/09/17 09:30:49;;;;;;;16.25;14.55;;;20.10;99.90;;;;;;5022040;28;20053;-67
2023/09/17 09:33:20;;;;;;;18.45;15.35;;;20.10;99.90;;;;;;5028565;28;20069;-66
2023/09/17 09:35:48;;;;;;;19.85;14.55;;;20.00;99.90;;;;;;5035199;28;20160;-66
2023/09/17 09:38:15;;;;;;;22.20;14.80;;;20.00;99.90;;;;;;5020385;28;20050;-66
2023/09/17 09:40:43;;;;;;;20.25;14.73;;;19.90;99.90;;;;;;5027779;28;20056;-66
2023/09/17 09:43:30;;;;;;;15.93;14.23;;;19.90;99.90;;;;;;5022120;28;20505;-67
2023/09/17 09:46:01;;;;;;;19.38;14.85;;;19.80;99.90;;;;;;5023725;28;20103;-67
2023/09/17 09:48:29;;;;;;;18.15;14.43;;;19.70;99.90;;;;;;5024280;28;20049;-65
2023/09/17 09:50:56;;;;;;;17.92;14.77;;;19.60;99.90;;;;;;5022694;28;20037;-65
2023/09/17 09:53:24;;;;;;;19.95;15.63;;;19.60;99.90;;;;;;5018832;28;20049;-64
2023/09/17 09:55:51;;;;;;;16.23;14.50;;;19.60;99.90;;;;;;5017459;28;20050;-65
2023/09/17 09:58:18;;;;;;;14.98;12.10;;;19.50;99.90;;;;;;5020176;28;20520;-66
2023/09/17 10:00:47;;;;;;;17.50;13.63;;;19.50;99.90;;;;;;5019931;28;20049;-66
2023/09/17 10:03:17;;;;;;;18.42;15.05;;;19.50;99.90;;;;;;5016231;28;20050;-65
2023/09/17 10:05:45;;;;;;;16.45;14.32;;;19.60;99.90;;;;;;5018402;28;20111;-67
2023/09/17 10:08:14;;;;;;;18.70;14.85;;;19.60;99.90;;;;;;5022945;28;20054;-66
2023/09/17 10:10:41;;;;;;;16.38;14.52;;;19.60;99.90;;;;;;5022468;28;20060;-66
2023/09/17 10:13:09;;;;;;;19.15;15.43;;;19.60;99.90;;;;;;5022941;28;20076;-65
2023/09/17 10:15:38;;;;;;;18.08;14.43;;;19.60;99.90;;;;;;5019262;28;20052;-66
2023/09/17 10:18:09;;;;;;;17.08;15.05;;;19.70;99.90;;;;;;5023007;28;20493;-65
2023/09/17 10:20:36;;;;;;;16.08;13.48;;;19.70;99.90;;;;;;5019481;28;20478;-66
2023/09/17 10:23:05;;;;;;;17.73;15.50;;;19.70;99.90;;;;;;5014708;28;20058;-65
2023/09/17 10:25:33;;;;;;;16.92;14.68;;;19.70;99.90;;;;;;5019006;28;20060;-65
2023/09/17 10:28:02;;;;;;;16.85;14.23;;;19.80;99.90;;;;;;5026522;28;20057;-65
2023/09/17 10:30:31;;;;;;;16.17;13.48;;;19.80;99.90;;;;;;5027267;28;20046;-66
2023/09/17 10:32:59;;;;;;;16.73;13.80;;;19.80;99.90;;;;;;5019068;28;20045;-66
2023/09/17 10:35:28;;;;;;;18.85;13.40;;;19.90;99.90;;;;;;5029048;28;20053;-67
2023/09/17 10:37:59;;;;;;;16.98;14.10;;;20.00;99.90;;;;;;5025951;28;20049;-67
2023/09/17 10:40:26;;;;;;;;;;;20.10;99.90;;;;;;5027086;28;20038;-67
2023/09/17 10:42:56;;;;;;;17.63;13.88;;;20.10;99.90;;;;;;5021398;28;19922;-66
2023/09/17 10:45:24;;;;;;;14.25;12.18;;;20.10;99.90;;;;;;5017639;28;20056;-66
2023/09/17 10:47:53;;;;;;;19.20;11.98;;;20.10;99.90;;;;;;5020503;28;20042;-67
2023/09/17 10:50:21;;;;;;;16.42;12.50;;;20.20;99.90;;;;;;5017892;28;20109;-66
2023/09/17 10:52:49;;;;;;;15.05;11.13;;;20.30;99.90;;;;;;5026433;28;20046;-67
2023/09/17 10:55:16;;;;;;;13.77;10.27;;;20.40;99.90;;;;;;5024377;28;20064;-67
2023/09/17 10:57:48;;;;;;;13.68;11.57;;;20.50;99.90;;;;;;5020679;28;20053;-66
2023/09/17 11:00:18;;;;;;;13.80;10.52;;;20.50;99.90;;;;;;5027994;28;20068;-66
2023/09/17 11:02:52;;;;;;;18.58;13.50;;;20.60;99.90;;;;;;5022963;28;20053;-68
2023/09/17 11:05:21;;;;;;;14.20;9.65;;;20.60;99.90;;;;;;5024956;28;20052;-66
2023/09/17 11:07:49;;;;;;;13.77;11.73;;;20.70;99.90;;;;;;5018993;28;20050;-67
2023/09/17 11:10:16;;;;;;;13.48;11.65;;;20.70;99.90;;;;;;5017100;28;20041;-67
2023/09/17 11:12:44;;;;;;;12.73;10.80;;;20.70;99.90;;;;;;5037860;28;20056;-67
2023/09/17 11:15:11;;;;;;;14.80;11.27;;;20.90;99.90;;;;;;5023264;28;20045;-66
2023/09/17 11:17:39;;;;;;;15.80;12.13;;;20.90;99.90;;;;;;5036545;28;20045;-66
2023/09/17 11:20:13;;;;;;;19.77;12.98;;;20.80;99.90;;;;;;5018844;28;20042;-66
2023/09/17 11:22:43;;;;;;;18.02;14.23;;;20.90;99.90;;;;;;5025717;28;20456;-68
2023/09/17 11:25:12;;;;;;;17.30;13.50;;;20.80;99.90;;;;;;5020780;28;20037;-69
2023/09/17 11:27:48;;;;;;;16.42;13.52;;;20.70;99.90;;;;;;5019879;28;20049;-67
2023/09/17 11:30:23;;;;;;;15.77;13.23;;;20.70;99.90;;;;;;5016294;28;20049;-67
2023/09/17 11:32:54;;;;;;;14.75;13.05;;;20.80;99.90;;;;;;5019368;28;20512;-67
2023/09/17 11:35:22;;;;;;;16.50;13.48;;;20.90;99.90;;;;;;5018216;28;20386;-67
2023/09/17 11:37:49;;;;;;;16.77;13.30;;;21.10;99.90;;;;;;5020038;28;20041;-66
2023/09/17 11:40:19;;;;;;;14.70;12.45;;;21.40;99.90;;;;;;5024049;28;20433;-66
2023/09/17 11:42:46;;;;;;;17.48;13.20;;;21.70;99.90;;;;;;5021579;28;20056;-66
2023/09/17 11:45:14;;;;;;;15.77;13.30;;;21.80;99.90;;;;;;5028349;28;20049;-67
2023/09/17 11:47:42;;;;;;;16.70;12.70;;;21.90;99.90;;;;;;5019722;28;20061;-68
2023/09/17 11:50:09;;;;;;;17.05;13.40;;;21.70;99.90;;;;;;5016831;28;20046;-65
2023/09/17 11:52:38;;;;;;;15.68;11.55;;;21.50;99.90;;;;;;5022389;28;20053;-66
2023/09/17 11:55:11;;;;;;;14.25;12.10;;;21.30;99.90;;;;;;5017453;28;20239;-67
2023/09/17 11:57:40;;;;;;;16.10;12.60;;;21.20;99.90;;;;;;5026342;28;20046;-68
2023/09/17 12:00:10;;;;;;;15.15;12.52;;;21.10;99.90;;;;;;5025106;28;20056;-68
2023/09/17 12:02:38;;;;;;;;;;;21.00;99.90;;;;;;5028640;28;20139;-69
2023/09/17 12:05:05;;;;;;;14.15;12.65;;;20.90;99.90;;;;;;5031493;28;20396;-67
2023/09/17 12:07:34;;;;;;;15.93;12.88;;;20.90;99.90;;;;;;5017130;28;20042;-67
2023/09/17 12:10:05;;;;;;;14.20;12.70;;;20.90;99.90;;;;;;5030114;28;20211;-69
2023/09/17 12:12:34;;;;;;;15.07;13.27;;;21.00;99.90;;;;;;5014747;28;20128;-68
2023/09/17 12:15:03;;;;;;;15.18;12.85;;;21.10;99.90;;;;;;5017360;28;20060;-69
2023/09/17 12:17:33;;;;;;;17.77;13.43;;;21.40;99.90;;;;;;5017428;28;20137;-69
2023/09/17 12:20:12;;;;;;;13.90;12.45;;;21.60;99.90;;;;;;5017352;28;20056;-69
2023/09/17 12:22:40;;;;;;;14.98;12.27;;;21.90;99.90;;;;;;5017616;28;20077;-68
2023/09/17 12:25:14;;;;;;;14.73;12.55;;;22.50;99.90;;;;;;5017310;28;20053;-68
2023/09/17 12:27:46;;;;;;;12.43;11.23;;;23.70;99.90;;;;;;5016482;28;20132;-68
2023/09/17 12:30:15;;;;;;;12.82;11.45;;;25.00;99.90;;;;;;5017588;28;20053;-68
2023/09/17 12:32:43;;;;;;;12.82;11.45;;;25.70;99.90;;;;;;5016966;28;20061;-68